NKS883 TJSJ-KBWI
Flight info
| Callsign | NKS883 |
|---|---|
| Flight time | 3h 45m |
| Altitude | 34000 |
| Route | PALDE DCT DONQU Y185 RENAH Y355 NUCAR DCT OHLAA/N0460F350 Y319 JAZZI DCT IDOLS DCT RUKRR DCT THHMP RAVNN7 |
| Aircraft | A320/M-SDE3FGHIRWY/LB1 |
Departure
| Time | 2026-04-28 16:20 |
|---|---|
| Airport | Luis Munoz Marin International Airport (TJSJ) |
Arrival
| Time | 2026-04-28 20:05 |
|---|---|
| Airport | Baltimore/Washington International Thurgood Marshall Airport (KBWI) |
| Time | Latitude | Longitude | Altitude | Speed | Heading |
|---|---|---|---|---|---|
| 2026-04-28 16:10 | 18.43557 | -66.00128 | 20 ft | 0 kts | 264° |
| 2026-04-28 16:11 | 18.43555 | -66.00146 | 20 ft | 6 kts | 265° |
| 2026-04-28 16:11 | 18.43515 | -66.00233 | 20 ft | 8 kts | 191° |
| 2026-04-28 16:12 | 18.43463 | -66.00343 | 19 ft | 11 kts | 273° |
| 2026-04-28 16:12 | 18.43466 | -66.00436 | 17 ft | 13 kts | 270° |
| 2026-04-28 16:13 | 18.43469 | -66.00652 | 17 ft | 15 kts | 271° |
| 2026-04-28 16:13 | 18.43468 | -66.00770 | 14 ft | 17 kts | 269° |
| 2026-04-28 16:13 | 18.43467 | -66.01028 | 15 ft | 17 kts | 269° |
| 2026-04-28 16:14 | 18.43468 | -66.01263 | 17 ft | 15 kts | 271° |
| 2026-04-28 16:14 | 18.43549 | -66.01436 | 17 ft | 15 kts | 0° |
| 2026-04-28 16:15 | 18.43765 | -66.01437 | 17 ft | 15 kts | 4° |
| 2026-04-28 16:15 | 18.43800 | -66.01441 | 17 ft | 0 kts | 342° |
| 2026-04-28 16:18 | 18.43808 | -66.01444 | 17 ft | 2 kts | 342° |
| 2026-04-28 16:19 | 18.43862 | -66.01466 | 17 ft | 13 kts | 337° |
| 2026-04-28 16:19 | 18.43885 | -66.01463 | 17 ft | 0 kts | 66° |
| 2026-04-28 16:19 | 18.43938 | -66.01335 | 17 ft | 50 kts | 65° |
| 2026-04-28 16:19 | 18.44167 | -66.00774 | 20 ft | 114 kts | 67° |
| 2026-04-28 16:20 | 18.44553 | -65.99813 | 49 ft | 163 kts | 66° |
| 2026-04-28 16:20 | 18.45005 | -65.98735 | 637 ft | 160 kts | 62° |
| 2026-04-28 16:20 | 18.45674 | -65.97819 | 1207 ft | 164 kts | 39° |
| 2026-04-28 16:20 | 18.46610 | -65.97131 | 1757 ft | 166 kts | 37° |
| 2026-04-28 16:21 | 18.47574 | -65.96411 | 2101 ft | 171 kts | 38° |
| 2026-04-28 16:21 | 18.48602 | -65.95763 | 2440 ft | 178 kts | 14° |
| 2026-04-28 16:21 | 18.49841 | -65.95989 | 2689 ft | 192 kts | 325° |
| 2026-04-28 16:21 | 18.50767 | -65.97052 | 2951 ft | 206 kts | 310° |
| 2026-04-28 16:22 | 18.51731 | -65.98269 | 3230 ft | 220 kts | 312° |
| 2026-04-28 16:22 | 18.52783 | -65.99522 | 3430 ft | 241 kts | 313° |
| 2026-04-28 16:22 | 18.53943 | -66.00874 | 3738 ft | 258 kts | 313° |
| 2026-04-28 16:22 | 18.55204 | -66.02331 | 4115 ft | 273 kts | 313° |
| 2026-04-28 16:23 | 18.56509 | -66.03834 | 4738 ft | 277 kts | 313° |
| 2026-04-28 16:23 | 18.57773 | -66.05289 | 5405 ft | 279 kts | 313° |
| 2026-04-28 16:23 | 18.59069 | -66.06778 | 6096 ft | 281 kts | 313° |
| 2026-04-28 16:23 | 18.60399 | -66.08305 | 6789 ft | 282 kts | 313° |
| 2026-04-28 16:24 | 18.61735 | -66.09837 | 7458 ft | 284 kts | 312° |
| 2026-04-28 16:24 | 18.63081 | -66.11382 | 8112 ft | 287 kts | 311° |
| 2026-04-28 16:24 | 18.64445 | -66.12949 | 8750 ft | 289 kts | 311° |
| 2026-04-28 16:24 | 18.65804 | -66.14513 | 9359 ft | 291 kts | 311° |
| 2026-04-28 16:25 | 18.67172 | -66.16089 | 9951 ft | 294 kts | 311° |
| 2026-04-28 16:25 | 18.68574 | -66.17705 | 10419 ft | 301 kts | 311° |
| 2026-04-28 16:25 | 18.70023 | -66.19373 | 10693 ft | 315 kts | 311° |
| 2026-04-28 16:25 | 18.71538 | -66.21119 | 10945 ft | 329 kts | 311° |
| 2026-04-28 16:26 | 18.73126 | -66.22946 | 11204 ft | 342 kts | 311° |
| 2026-04-28 16:26 | 18.74767 | -66.24837 | 11425 ft | 355 kts | 311° |
| 2026-04-28 16:26 | 18.76452 | -66.26778 | 11723 ft | 364 kts | 311° |
| 2026-04-28 16:26 | 18.78198 | -66.28789 | 12206 ft | 367 kts | 311° |
| 2026-04-28 16:27 | 18.79908 | -66.30757 | 12710 ft | 369 kts | 311° |
| 2026-04-28 16:27 | 18.81649 | -66.32762 | 13196 ft | 371 kts | 311° |
| 2026-04-28 16:27 | 18.85159 | -66.36808 | 14118 ft | 376 kts | 311° |
| 2026-04-28 16:28 | 18.86938 | -66.38860 | 14551 ft | 378 kts | 311° |
| 2026-04-28 16:28 | 18.88134 | -66.40242 | 14841 ft | 379 kts | 310° |
| 2026-04-28 16:28 | 18.90519 | -66.42996 | 15412 ft | 382 kts | 310° |
| 2026-04-28 16:28 | 18.92311 | -66.45066 | 15790 ft | 385 kts | 310° |
| 2026-04-28 16:29 | 18.95973 | -66.49302 | 16559 ft | 390 kts | 310° |
| 2026-04-28 16:29 | 18.99654 | -66.53564 | 17321 ft | 393 kts | 310° |
| 2026-04-28 16:30 | 19.01506 | -66.55711 | 17699 ft | 395 kts | 310° |
| 2026-04-28 16:30 | 19.03353 | -66.57851 | 18049 ft | 397 kts | 310° |
| 2026-04-28 16:30 | 19.05225 | -66.60018 | 18403 ft | 399 kts | 309° |
| 2026-04-28 16:30 | 19.07152 | -66.62184 | 18751 ft | 402 kts | 312° |
| 2026-04-28 16:31 | 19.09187 | -66.64226 | 19104 ft | 404 kts | 315° |
| 2026-04-28 16:31 | 19.11345 | -66.66206 | 19444 ft | 407 kts | 316° |
| 2026-04-28 16:31 | 19.13486 | -66.68137 | 19780 ft | 408 kts | 316° |
| 2026-04-28 16:31 | 19.15688 | -66.70119 | 20104 ft | 410 kts | 315° |
| 2026-04-28 16:32 | 19.17863 | -66.72081 | 20429 ft | 412 kts | 315° |
| 2026-04-28 16:32 | 19.22258 | -66.76053 | 21046 ft | 415 kts | 315° |
| 2026-04-28 16:32 | 19.24461 | -66.78046 | 21341 ft | 417 kts | 315° |
| 2026-04-28 16:33 | 19.26694 | -66.80068 | 21642 ft | 418 kts | 315° |
| 2026-04-28 16:33 | 19.27439 | -66.80743 | 21739 ft | 419 kts | 315° |
| 2026-04-28 16:33 | 19.31124 | -66.84082 | 22218 ft | 420 kts | 315° |
| 2026-04-28 16:33 | 19.33382 | -66.86130 | 22485 ft | 422 kts | 315° |
| 2026-04-28 16:34 | 19.35625 | -66.88164 | 22749 ft | 424 kts | 315° |
| 2026-04-28 16:34 | 19.37870 | -66.90201 | 23039 ft | 424 kts | 314° |
| 2026-04-28 16:34 | 19.40146 | -66.92265 | 23310 ft | 426 kts | 314° |
| 2026-04-28 16:34 | 19.42391 | -66.94305 | 23568 ft | 427 kts | 314° |
| 2026-04-28 16:35 | 19.44666 | -66.96372 | 23838 ft | 428 kts | 314° |
| 2026-04-28 16:35 | 19.46934 | -66.98433 | 24097 ft | 429 kts | 314° |
| 2026-04-28 16:35 | 19.49201 | -67.00494 | 24355 ft | 430 kts | 314° |
| 2026-04-28 16:35 | 19.51487 | -67.02575 | 24600 ft | 431 kts | 314° |
| 2026-04-28 16:36 | 19.53781 | -67.04662 | 24849 ft | 432 kts | 314° |
| 2026-04-28 16:36 | 19.56078 | -67.06754 | 25089 ft | 433 kts | 314° |
| 2026-04-28 16:36 | 19.58379 | -67.08848 | 25327 ft | 434 kts | 314° |
| 2026-04-28 16:36 | 19.60720 | -67.10980 | 25576 ft | 435 kts | 314° |
| 2026-04-28 16:37 | 19.63002 | -67.13059 | 25807 ft | 436 kts | 314° |
| 2026-04-28 16:37 | 19.65343 | -67.15192 | 26041 ft | 436 kts | 313° |
| 2026-04-28 16:37 | 19.67649 | -67.17295 | 26252 ft | 438 kts | 313° |
| 2026-04-28 16:38 | 19.72312 | -67.21551 | 26682 ft | 440 kts | 313° |
| 2026-04-28 16:38 | 19.74637 | -67.23674 | 26894 ft | 441 kts | 313° |
| 2026-04-28 16:38 | 19.76958 | -67.25796 | 27123 ft | 441 kts | 313° |
| 2026-04-28 16:38 | 19.79297 | -67.27934 | 27344 ft | 441 kts | 313° |
| 2026-04-28 16:39 | 19.81630 | -67.30068 | 27522 ft | 442 kts | 313° |
| 2026-04-28 16:39 | 19.84001 | -67.32237 | 27721 ft | 443 kts | 313° |
| 2026-04-28 16:39 | 19.86324 | -67.34363 | 27982 ft | 442 kts | 313° |
| 2026-04-28 16:39 | 19.88643 | -67.36484 | 28231 ft | 441 kts | 313° |
| 2026-04-28 16:40 | 19.90980 | -67.38625 | 28465 ft | 440 kts | 312° |
| 2026-04-28 16:40 | 19.93320 | -67.40767 | 28736 ft | 439 kts | 312° |
| 2026-04-28 16:40 | 19.95650 | -67.42903 | 28987 ft | 438 kts | 312° |
| 2026-04-28 16:40 | 19.97960 | -67.45019 | 29235 ft | 437 kts | 312° |
| 2026-04-28 16:41 | 20.00273 | -67.47142 | 29493 ft | 437 kts | 311° |
| 2026-04-28 16:41 | 20.02582 | -67.49262 | 29748 ft | 436 kts | 312° |
| 2026-04-28 16:41 | 20.04861 | -67.51356 | 30006 ft | 435 kts | 311° |
| 2026-04-28 16:41 | 20.07159 | -67.53464 | 30282 ft | 434 kts | 311° |
| 2026-04-28 16:42 | 20.09438 | -67.55559 | 30570 ft | 432 kts | 311° |
| 2026-04-28 16:42 | 20.11725 | -67.57661 | 30833 ft | 431 kts | 311° |
| 2026-04-28 16:42 | 20.14004 | -67.59756 | 31069 ft | 430 kts | 311° |
| 2026-04-28 16:42 | 20.16287 | -67.61856 | 31278 ft | 430 kts | 311° |
| 2026-04-28 16:43 | 20.18568 | -67.63957 | 31471 ft | 430 kts | 311° |
| 2026-04-28 16:43 | 20.20838 | -67.66048 | 31680 ft | 430 kts | 310° |
| 2026-04-28 16:43 | 20.23096 | -67.68127 | 31927 ft | 429 kts | 310° |
| 2026-04-28 16:43 | 20.25347 | -67.70201 | 32171 ft | 428 kts | 310° |
| 2026-04-28 16:44 | 20.27619 | -67.72297 | 32390 ft | 428 kts | 310° |
| 2026-04-28 16:44 | 20.29880 | -67.74382 | 32591 ft | 428 kts | 310° |
| 2026-04-28 16:44 | 20.32140 | -67.76468 | 32756 ft | 428 kts | 310° |
| 2026-04-28 16:44 | 20.34393 | -67.78548 | 32916 ft | 429 kts | 310° |
| 2026-04-28 16:45 | 20.36651 | -67.80634 | 33090 ft | 429 kts | 310° |
| 2026-04-28 16:45 | 20.38923 | -67.82733 | 33246 ft | 430 kts | 310° |
| 2026-04-28 16:45 | 20.41191 | -67.84829 | 33417 ft | 430 kts | 310° |
| 2026-04-28 16:45 | 20.43459 | -67.86926 | 33531 ft | 431 kts | 310° |
| 2026-04-28 16:46 | 20.45723 | -67.89021 | 33650 ft | 432 kts | 310° |
| 2026-04-28 16:46 | 20.48017 | -67.91145 | 33802 ft | 432 kts | 310° |
| 2026-04-28 16:46 | 20.50312 | -67.93271 | 33952 ft | 433 kts | 310° |
| 2026-04-28 16:47 | 20.54852 | -67.97479 | 33960 ft | 433 kts | 310° |
| 2026-04-28 16:47 | 20.59420 | -68.01718 | 33962 ft | 433 kts | 310° |
| 2026-04-28 16:48 | 20.63965 | -68.05941 | 33963 ft | 433 kts | 311° |
| 2026-04-28 16:48 | 20.68533 | -68.10216 | 33963 ft | 431 kts | 309° |
| 2026-04-28 16:49 | 20.72702 | -68.14768 | 33963 ft | 424 kts | 303° |
| 2026-04-28 16:49 | 20.76465 | -68.19642 | 33964 ft | 423 kts | 301° |
| 2026-04-28 16:50 | 20.80158 | -68.24533 | 33964 ft | 422 kts | 301° |
| 2026-04-28 16:50 | 20.83867 | -68.29449 | 33963 ft | 422 kts | 301° |
| 2026-04-28 16:51 | 20.87571 | -68.34365 | 33961 ft | 421 kts | 301° |
| 2026-04-28 16:51 | 20.91244 | -68.39243 | 33961 ft | 421 kts | 301° |
| 2026-04-28 16:52 | 20.94923 | -68.44133 | 33962 ft | 422 kts | 301° |
| 2026-04-28 16:52 | 20.98629 | -68.49062 | 33963 ft | 421 kts | 301° |
| 2026-04-28 16:53 | 21.02337 | -68.53996 | 33965 ft | 421 kts | 301° |
| 2026-04-28 16:53 | 21.06028 | -68.58914 | 33961 ft | 421 kts | 301° |
| 2026-04-28 16:54 | 21.09696 | -68.63805 | 33964 ft | 422 kts | 301° |
| 2026-04-28 16:54 | 21.13379 | -68.68722 | 33967 ft | 422 kts | 301° |
| 2026-04-28 16:55 | 21.17057 | -68.73636 | 33964 ft | 421 kts | 301° |
| 2026-04-28 16:55 | 21.20713 | -68.78525 | 33965 ft | 421 kts | 301° |
| 2026-04-28 16:56 | 21.24378 | -68.83432 | 33964 ft | 420 kts | 301° |
| 2026-04-28 16:56 | 21.28055 | -68.88356 | 33965 ft | 421 kts | 301° |
| 2026-04-28 16:57 | 21.31698 | -68.93240 | 33966 ft | 421 kts | 301° |
| 2026-04-28 16:57 | 21.35381 | -68.98180 | 33963 ft | 420 kts | 301° |
| 2026-04-28 16:58 | 21.39044 | -69.03093 | 33967 ft | 421 kts | 301° |
| 2026-04-28 16:58 | 21.42697 | -69.08002 | 33964 ft | 420 kts | 301° |
| 2026-04-28 16:59 | 21.46372 | -69.12945 | 33964 ft | 420 kts | 301° |
| 2026-04-28 16:59 | 21.50016 | -69.17853 | 33961 ft | 419 kts | 301° |
| 2026-04-28 17:00 | 21.53668 | -69.22775 | 33965 ft | 419 kts | 301° |
| 2026-04-28 17:00 | 21.57300 | -69.27677 | 33962 ft | 419 kts | 301° |
| 2026-04-28 17:01 | 21.60964 | -69.32623 | 33962 ft | 420 kts | 301° |
| 2026-04-28 17:01 | 21.64607 | -69.37548 | 33965 ft | 419 kts | 301° |
| 2026-04-28 17:02 | 21.68254 | -69.42484 | 33962 ft | 419 kts | 301° |
| 2026-04-28 17:02 | 21.71891 | -69.47405 | 33962 ft | 419 kts | 301° |
| 2026-04-28 17:03 | 21.77343 | -69.54796 | 33960 ft | 419 kts | 301° |
| 2026-04-28 17:03 | 21.80976 | -69.59731 | 33960 ft | 419 kts | 301° |
| 2026-04-28 17:04 | 21.86430 | -69.67142 | 33964 ft | 418 kts | 301° |
| 2026-04-28 17:05 | 21.91852 | -69.74523 | 33964 ft | 418 kts | 301° |
| 2026-04-28 17:06 | 21.97287 | -69.81935 | 33964 ft | 418 kts | 301° |
| 2026-04-28 17:06 | 22.02733 | -69.89357 | 33965 ft | 418 kts | 301° |
| 2026-04-28 17:07 | 22.06319 | -69.94255 | 33966 ft | 419 kts | 301° |
| 2026-04-28 17:07 | 22.09947 | -69.99218 | 33968 ft | 419 kts | 301° |
| 2026-04-28 17:08 | 22.13580 | -70.04185 | 33964 ft | 419 kts | 301° |
| 2026-04-28 17:08 | 22.17176 | -70.09099 | 33966 ft | 419 kts | 301° |
| 2026-04-28 17:09 | 22.20786 | -70.14043 | 33966 ft | 419 kts | 301° |
| 2026-04-28 17:09 | 22.24412 | -70.19017 | 33966 ft | 418 kts | 301° |
| 2026-04-28 17:10 | 22.28003 | -70.23946 | 33964 ft | 419 kts | 301° |
| 2026-04-28 17:10 | 22.31622 | -70.28925 | 33967 ft | 419 kts | 301° |
| 2026-04-28 17:11 | 22.35230 | -70.33889 | 33966 ft | 418 kts | 301° |
| 2026-04-28 17:11 | 22.38839 | -70.38860 | 33964 ft | 419 kts | 301° |
| 2026-04-28 17:12 | 22.42458 | -70.43849 | 33963 ft | 419 kts | 301° |
| 2026-04-28 17:12 | 22.46044 | -70.48800 | 33970 ft | 419 kts | 302° |
| 2026-04-28 17:13 | 22.49655 | -70.53790 | 33961 ft | 419 kts | 302° |
| 2026-04-28 17:13 | 22.53256 | -70.58771 | 33965 ft | 419 kts | 302° |
| 2026-04-28 17:14 | 22.56850 | -70.63744 | 33965 ft | 419 kts | 302° |
| 2026-04-28 17:14 | 22.60472 | -70.68765 | 33967 ft | 420 kts | 301° |
| 2026-04-28 17:15 | 22.64064 | -70.73752 | 33965 ft | 419 kts | 301° |
| 2026-04-28 17:15 | 22.67657 | -70.78745 | 33965 ft | 419 kts | 302° |
| 2026-04-28 17:16 | 22.71259 | -70.83804 | 33967 ft | 419 kts | 301° |
| 2026-04-28 17:16 | 22.74711 | -70.88744 | 33963 ft | 419 kts | 301° |
| 2026-04-28 17:17 | 22.78231 | -70.93790 | 33966 ft | 419 kts | 301° |
| 2026-04-28 17:17 | 22.81752 | -70.98838 | 33965 ft | 419 kts | 301° |
| 2026-04-28 17:18 | 22.85268 | -71.03886 | 33966 ft | 419 kts | 301° |
| 2026-04-28 17:18 | 22.88805 | -71.08966 | 33965 ft | 420 kts | 301° |
| 2026-04-28 17:19 | 22.92334 | -71.14039 | 33974 ft | 420 kts | 301° |
| 2026-04-28 17:19 | 22.95859 | -71.19114 | 33979 ft | 419 kts | 301° |
| 2026-04-28 17:20 | 22.98785 | -71.23330 | 33983 ft | 419 kts | 301° |
| 2026-04-28 17:20 | 23.02877 | -71.29234 | 33985 ft | 420 kts | 302° |
| 2026-04-28 17:21 | 23.06391 | -71.34306 | 33985 ft | 420 kts | 302° |
| 2026-04-28 17:22 | 23.11686 | -71.41959 | 33988 ft | 421 kts | 302° |
| 2026-04-28 17:22 | 23.15214 | -71.47067 | 33992 ft | 421 kts | 302° |
| 2026-04-28 17:23 | 23.20505 | -71.54738 | 33995 ft | 423 kts | 302° |
| 2026-04-28 17:23 | 23.24039 | -71.59866 | 33990 ft | 423 kts | 302° |
| 2026-04-28 17:24 | 23.27591 | -71.65027 | 34001 ft | 423 kts | 302° |
| 2026-04-28 17:24 | 23.31114 | -71.70152 | 33991 ft | 423 kts | 302° |
| 2026-04-28 17:25 | 23.36427 | -71.77891 | 33995 ft | 424 kts | 303° |
| 2026-04-28 17:26 | 23.39983 | -71.83035 | 33997 ft | 425 kts | 303° |
| 2026-04-28 17:26 | 23.43565 | -71.88222 | 33992 ft | 425 kts | 303° |
| 2026-04-28 17:27 | 23.47129 | -71.93394 | 34000 ft | 426 kts | 303° |
| 2026-04-28 17:27 | 23.50698 | -71.98585 | 33999 ft | 427 kts | 303° |
| 2026-04-28 17:28 | 23.54247 | -72.03749 | 34007 ft | 426 kts | 303° |
| 2026-04-28 17:28 | 23.59598 | -72.11546 | 34015 ft | 427 kts | 303° |
| 2026-04-28 17:29 | 23.63141 | -72.16720 | 33996 ft | 428 kts | 303° |
| 2026-04-28 17:30 | 23.68503 | -72.24553 | 33998 ft | 428 kts | 303° |
| 2026-04-28 17:30 | 23.73844 | -72.32372 | 33996 ft | 429 kts | 303° |
| 2026-04-28 17:31 | 23.79209 | -72.40237 | 34004 ft | 431 kts | 304° |
| 2026-04-28 17:32 | 23.84600 | -72.48151 | 34006 ft | 432 kts | 304° |
| 2026-04-28 17:32 | 23.88192 | -72.53428 | 34003 ft | 431 kts | 304° |
| 2026-04-28 17:33 | 23.91775 | -72.58706 | 34009 ft | 432 kts | 304° |
| 2026-04-28 17:33 | 23.94771 | -72.63120 | 34003 ft | 433 kts | 304° |
| 2026-04-28 17:34 | 23.98978 | -72.69325 | 34017 ft | 434 kts | 304° |
| 2026-04-28 17:34 | 24.02572 | -72.74629 | 34008 ft | 434 kts | 304° |
| 2026-04-28 17:35 | 24.06176 | -72.79955 | 34011 ft | 434 kts | 304° |
| 2026-04-28 17:35 | 24.09795 | -72.85308 | 34000 ft | 434 kts | 304° |
| 2026-04-28 17:36 | 24.13383 | -72.90624 | 34009 ft | 434 kts | 304° |
| 2026-04-28 17:36 | 24.16981 | -72.95962 | 34000 ft | 435 kts | 304° |
| 2026-04-28 17:37 | 24.20575 | -73.01295 | 34006 ft | 435 kts | 304° |
| 2026-04-28 17:37 | 24.24163 | -73.06630 | 34016 ft | 436 kts | 304° |
| 2026-04-28 17:38 | 24.27771 | -73.11998 | 34015 ft | 436 kts | 304° |
| 2026-04-28 17:38 | 24.31373 | -73.17364 | 34012 ft | 438 kts | 305° |
| 2026-04-28 17:39 | 24.34994 | -73.22761 | 34004 ft | 438 kts | 305° |
| 2026-04-28 17:40 | 24.40416 | -73.30858 | 34011 ft | 438 kts | 305° |
| 2026-04-28 17:40 | 24.44012 | -73.36237 | 34015 ft | 439 kts | 305° |
| 2026-04-28 17:41 | 24.47656 | -73.41694 | 34016 ft | 439 kts | 305° |
| 2026-04-28 17:41 | 24.51280 | -73.47130 | 34008 ft | 440 kts | 305° |
| 2026-04-28 17:42 | 24.54897 | -73.52527 | 34008 ft | 441 kts | 307° |
| 2026-04-28 17:42 | 24.58919 | -73.57669 | 34017 ft | 442 kts | 313° |
| 2026-04-28 17:43 | 24.63259 | -73.62492 | 34012 ft | 443 kts | 314° |
| 2026-04-28 17:43 | 24.67599 | -73.67279 | 34015 ft | 443 kts | 314° |
| 2026-04-28 17:44 | 24.71949 | -73.72086 | 34010 ft | 443 kts | 314° |
| 2026-04-28 17:44 | 24.76306 | -73.76905 | 34008 ft | 444 kts | 313° |
| 2026-04-28 17:45 | 24.80670 | -73.81743 | 34010 ft | 445 kts | 313° |
| 2026-04-28 17:45 | 24.85059 | -73.86613 | 34023 ft | 446 kts | 314° |
| 2026-04-28 17:46 | 24.89410 | -73.91447 | 34030 ft | 446 kts | 314° |
| 2026-04-28 17:46 | 24.93799 | -73.96329 | 34014 ft | 445 kts | 314° |
| 2026-04-28 17:47 | 24.98167 | -74.01194 | 34027 ft | 446 kts | 314° |
| 2026-04-28 17:47 | 25.02538 | -74.06065 | 34029 ft | 448 kts | 314° |
| 2026-04-28 17:48 | 25.06922 | -74.10956 | 34035 ft | 448 kts | 314° |
| 2026-04-28 17:48 | 25.11325 | -74.15873 | 34029 ft | 448 kts | 314° |
| 2026-04-28 17:49 | 25.15697 | -74.20762 | 34030 ft | 447 kts | 314° |
| 2026-04-28 17:49 | 25.20099 | -74.25689 | 34026 ft | 447 kts | 314° |
| 2026-04-28 17:50 | 25.24448 | -74.30565 | 34029 ft | 447 kts | 314° |
| 2026-04-28 17:50 | 25.28842 | -74.35493 | 34027 ft | 447 kts | 314° |
| 2026-04-28 17:51 | 25.33201 | -74.40392 | 34029 ft | 448 kts | 314° |
| 2026-04-28 17:51 | 25.37579 | -74.45312 | 34027 ft | 448 kts | 314° |
| 2026-04-28 17:52 | 25.41956 | -74.50238 | 34018 ft | 447 kts | 314° |
| 2026-04-28 17:52 | 25.48512 | -74.57628 | 34039 ft | 447 kts | 314° |
| 2026-04-28 17:53 | 25.52869 | -74.62546 | 34033 ft | 447 kts | 314° |
| 2026-04-28 17:53 | 25.57228 | -74.67471 | 34025 ft | 447 kts | 314° |
| 2026-04-28 17:54 | 25.61575 | -74.72388 | 34023 ft | 447 kts | 314° |
| 2026-04-28 17:54 | 25.65929 | -74.77320 | 34031 ft | 447 kts | 314° |
| 2026-04-28 17:55 | 25.70286 | -74.82259 | 34033 ft | 447 kts | 314° |
| 2026-04-28 17:55 | 25.74621 | -74.87179 | 34030 ft | 448 kts | 314° |
| 2026-04-28 17:56 | 25.78990 | -74.92142 | 34022 ft | 448 kts | 314° |
| 2026-04-28 17:56 | 25.83341 | -74.97092 | 34034 ft | 448 kts | 314° |
| 2026-04-28 17:57 | 25.87678 | -75.02033 | 34034 ft | 449 kts | 314° |
| 2026-04-28 17:57 | 25.92041 | -75.07007 | 34031 ft | 450 kts | 314° |
| 2026-04-28 17:58 | 25.96394 | -75.11973 | 34026 ft | 449 kts | 314° |
| 2026-04-28 17:58 | 26.00755 | -75.16953 | 34025 ft | 450 kts | 314° |
| 2026-04-28 17:59 | 26.05111 | -75.21938 | 34034 ft | 449 kts | 314° |
| 2026-04-28 17:59 | 26.09468 | -75.26926 | 34019 ft | 449 kts | 314° |
| 2026-04-28 18:00 | 26.13827 | -75.31926 | 34034 ft | 449 kts | 314° |
| 2026-04-28 18:00 | 26.18181 | -75.36924 | 34031 ft | 449 kts | 314° |
| 2026-04-28 18:01 | 26.22525 | -75.41918 | 34043 ft | 450 kts | 314° |
| 2026-04-28 18:01 | 26.26850 | -75.46895 | 34035 ft | 450 kts | 314° |
| 2026-04-28 18:02 | 26.31227 | -75.51932 | 34038 ft | 450 kts | 314° |
| 2026-04-28 18:02 | 26.35582 | -75.56951 | 34048 ft | 450 kts | 314° |
| 2026-04-28 18:03 | 26.39919 | -75.61959 | 34043 ft | 449 kts | 314° |
| 2026-04-28 18:03 | 26.44248 | -75.66961 | 34047 ft | 451 kts | 313° |
| 2026-04-28 18:04 | 26.48602 | -75.71999 | 34050 ft | 451 kts | 313° |
| 2026-04-28 18:04 | 26.52989 | -75.77087 | 34049 ft | 455 kts | 313° |
| 2026-04-28 18:05 | 26.56668 | -75.81356 | 34053 ft | 456 kts | 313° |
| 2026-04-28 18:05 | 26.61798 | -75.87312 | 34045 ft | 456 kts | 313° |
| 2026-04-28 18:06 | 26.66188 | -75.92416 | 34042 ft | 456 kts | 313° |
| 2026-04-28 18:06 | 26.70588 | -75.97540 | 34052 ft | 456 kts | 313° |
| 2026-04-28 18:07 | 26.74967 | -76.02644 | 34038 ft | 456 kts | 313° |
| 2026-04-28 18:07 | 26.79365 | -76.07780 | 34044 ft | 456 kts | 314° |
| 2026-04-28 18:08 | 26.83748 | -76.12893 | 34048 ft | 456 kts | 313° |
| 2026-04-28 18:08 | 26.88122 | -76.18012 | 34041 ft | 456 kts | 313° |
| 2026-04-28 18:09 | 26.92521 | -76.23167 | 34042 ft | 456 kts | 314° |
| 2026-04-28 18:09 | 26.96873 | -76.28275 | 34047 ft | 455 kts | 314° |
| 2026-04-28 18:10 | 27.01259 | -76.33426 | 34050 ft | 455 kts | 314° |
| 2026-04-28 18:10 | 27.05640 | -76.38579 | 34049 ft | 455 kts | 314° |
| 2026-04-28 18:11 | 27.10056 | -76.43682 | 34047 ft | 456 kts | 314° |
| 2026-04-28 18:11 | 27.14476 | -76.48740 | 34044 ft | 457 kts | 314° |
| 2026-04-28 18:12 | 27.18924 | -76.53855 | 34052 ft | 456 kts | 314° |
| 2026-04-28 18:12 | 27.23325 | -76.58929 | 34046 ft | 454 kts | 314° |
| 2026-04-28 18:13 | 27.27719 | -76.64005 | 34045 ft | 452 kts | 314° |
| 2026-04-28 18:13 | 27.32115 | -76.69092 | 34049 ft | 452 kts | 313° |
| 2026-04-28 18:14 | 27.36499 | -76.74162 | 34046 ft | 453 kts | 313° |
| 2026-04-28 18:14 | 27.40885 | -76.79245 | 34051 ft | 452 kts | 313° |
| 2026-04-28 18:15 | 27.45241 | -76.84301 | 34043 ft | 452 kts | 313° |
| 2026-04-28 18:15 | 27.49622 | -76.89392 | 34050 ft | 452 kts | 313° |
| 2026-04-28 18:16 | 27.53988 | -76.94471 | 34044 ft | 452 kts | 313° |
| 2026-04-28 18:16 | 27.58375 | -76.99582 | 34038 ft | 452 kts | 313° |
| 2026-04-28 18:17 | 27.62730 | -77.04661 | 34040 ft | 452 kts | 313° |
| 2026-04-28 18:17 | 27.67120 | -77.09787 | 34050 ft | 453 kts | 313° |
| 2026-04-28 18:18 | 27.71484 | -77.14884 | 34045 ft | 453 kts | 313° |
| 2026-04-28 18:18 | 27.75118 | -77.19138 | 34044 ft | 454 kts | 313° |
| 2026-04-28 18:19 | 27.80234 | -77.25136 | 34039 ft | 453 kts | 313° |
| 2026-04-28 18:19 | 27.84597 | -77.30258 | 34046 ft | 452 kts | 313° |
| 2026-04-28 18:20 | 27.88952 | -77.35375 | 34048 ft | 451 kts | 313° |
| 2026-04-28 18:20 | 27.93286 | -77.40475 | 34046 ft | 450 kts | 313° |
| 2026-04-28 18:21 | 27.97618 | -77.45581 | 34051 ft | 450 kts | 313° |
| 2026-04-28 18:21 | 28.01927 | -77.50670 | 34039 ft | 450 kts | 313° |
| 2026-04-28 18:22 | 28.06286 | -77.55793 | 34046 ft | 449 kts | 315° |
| 2026-04-28 18:22 | 28.11131 | -77.60186 | 34049 ft | 449 kts | 327° |
| 2026-04-28 18:23 | 28.16684 | -77.63417 | 34089 ft | 448 kts | 338° |
| 2026-04-28 18:23 | 28.22682 | -77.65341 | 34130 ft | 448 kts | 348° |
| 2026-04-28 18:24 | 28.27795 | -77.66375 | 34135 ft | 448 kts | 349° |
| 2026-04-28 18:24 | 28.35022 | -77.67790 | 34136 ft | 449 kts | 349° |
| 2026-04-28 18:25 | 28.41178 | -77.69009 | 34140 ft | 449 kts | 349° |
| 2026-04-28 18:26 | 28.50396 | -77.70849 | 34144 ft | 448 kts | 349° |
| 2026-04-28 18:26 | 28.56541 | -77.72078 | 34140 ft | 448 kts | 349° |
| 2026-04-28 18:27 | 28.62692 | -77.73310 | 34146 ft | 448 kts | 349° |
| 2026-04-28 18:27 | 28.68811 | -77.74538 | 34144 ft | 448 kts | 349° |
| 2026-04-28 18:28 | 28.74973 | -77.75777 | 34149 ft | 448 kts | 349° |
| 2026-04-28 18:28 | 28.81110 | -77.77013 | 34145 ft | 447 kts | 349° |
| 2026-04-28 18:29 | 28.87237 | -77.78245 | 34148 ft | 448 kts | 349° |
| 2026-04-28 18:29 | 28.93398 | -77.79491 | 34147 ft | 448 kts | 349° |
| 2026-04-28 18:30 | 28.99548 | -77.80733 | 34151 ft | 448 kts | 349° |
| 2026-04-28 18:30 | 29.05673 | -77.81972 | 34150 ft | 447 kts | 349° |
| 2026-04-28 18:31 | 29.11825 | -77.83215 | 34156 ft | 447 kts | 349° |
| 2026-04-28 18:31 | 29.17938 | -77.84453 | 34157 ft | 446 kts | 349° |
| 2026-04-28 18:32 | 29.24070 | -77.85698 | 34161 ft | 446 kts | 349° |
| 2026-04-28 18:32 | 29.30192 | -77.86942 | 34410 ft | 447 kts | 349° |
| 2026-04-28 18:32 | 29.33238 | -77.87561 | 34628 ft | 446 kts | 349° |
| 2026-04-28 18:33 | 29.36322 | -77.88188 | 34834 ft | 445 kts | 349° |
| 2026-04-28 18:33 | 29.39375 | -77.88809 | 35041 ft | 444 kts | 349° |
| 2026-04-28 18:33 | 29.42415 | -77.89429 | 35147 ft | 443 kts | 348° |
| 2026-04-28 18:34 | 29.48455 | -77.90662 | 35155 ft | 442 kts | 348° |
| 2026-04-28 18:34 | 29.54528 | -77.91903 | 35164 ft | 441 kts | 348° |
| 2026-04-28 18:35 | 29.60590 | -77.93141 | 35163 ft | 441 kts | 348° |
| 2026-04-28 18:35 | 29.66624 | -77.94378 | 35162 ft | 442 kts | 348° |
| 2026-04-28 18:36 | 29.72708 | -77.95624 | 35159 ft | 442 kts | 348° |
| 2026-04-28 18:36 | 29.78787 | -77.96871 | 35164 ft | 443 kts | 348° |
| 2026-04-28 18:37 | 29.84820 | -77.98112 | 35167 ft | 442 kts | 348° |
| 2026-04-28 18:37 | 29.90896 | -77.99361 | 35171 ft | 441 kts | 348° |
| 2026-04-28 18:38 | 29.96954 | -78.00609 | 35167 ft | 441 kts | 348° |
| 2026-04-28 18:38 | 30.02993 | -78.01856 | 35174 ft | 441 kts | 348° |
| 2026-04-28 18:39 | 30.09024 | -78.03101 | 35179 ft | 441 kts | 348° |
| 2026-04-28 18:39 | 30.15103 | -78.04359 | 35177 ft | 441 kts | 348° |
| 2026-04-28 18:40 | 30.21150 | -78.05613 | 35176 ft | 442 kts | 348° |
| 2026-04-28 18:40 | 30.27192 | -78.06867 | 35176 ft | 441 kts | 348° |
| 2026-04-28 18:41 | 30.33249 | -78.08118 | 35178 ft | 441 kts | 349° |
| 2026-04-28 18:41 | 30.39346 | -78.08914 | 35188 ft | 442 kts | 355° |
| 2026-04-28 18:42 | 30.45522 | -78.08956 | 35182 ft | 443 kts | 1° |
| 2026-04-28 18:42 | 30.51657 | -78.08260 | 35188 ft | 444 kts | 6° |
| 2026-04-28 18:43 | 30.57775 | -78.07300 | 35181 ft | 444 kts | 6° |
| 2026-04-28 18:43 | 30.63887 | -78.06332 | 35187 ft | 443 kts | 6° |
| 2026-04-28 18:44 | 30.69979 | -78.05371 | 35189 ft | 443 kts | 6° |
| 2026-04-28 18:44 | 30.79170 | -78.03923 | 35196 ft | 443 kts | 6° |
| 2026-04-28 18:45 | 30.85267 | -78.02961 | 35193 ft | 443 kts | 6° |
| 2026-04-28 18:45 | 30.91377 | -78.01999 | 35188 ft | 443 kts | 6° |
| 2026-04-28 18:46 | 30.97493 | -78.01032 | 35194 ft | 442 kts | 6° |
| 2026-04-28 18:46 | 31.03590 | -78.00067 | 35190 ft | 442 kts | 6° |
| 2026-04-28 18:47 | 31.09709 | -77.99098 | 35191 ft | 442 kts | 6° |
| 2026-04-28 18:47 | 31.15821 | -77.98126 | 35190 ft | 442 kts | 6° |
| 2026-04-28 18:48 | 31.21899 | -77.97160 | 35186 ft | 441 kts | 6° |
| 2026-04-28 18:48 | 31.27962 | -77.96197 | 35188 ft | 442 kts | 6° |
| 2026-04-28 18:49 | 31.32059 | -77.95545 | 35185 ft | 441 kts | 6° |
| 2026-04-28 18:49 | 31.40126 | -77.94259 | 35181 ft | 440 kts | 6° |
| 2026-04-28 18:50 | 31.46212 | -77.93286 | 35179 ft | 440 kts | 6° |
| 2026-04-28 18:50 | 31.52326 | -77.92306 | 35173 ft | 438 kts | 6° |
| 2026-04-28 18:51 | 31.58358 | -77.91341 | 35171 ft | 438 kts | 6° |
| 2026-04-28 18:51 | 31.64389 | -77.90374 | 35172 ft | 437 kts | 6° |
| 2026-04-28 18:52 | 31.70443 | -77.89402 | 35170 ft | 437 kts | 6° |
| 2026-04-28 18:52 | 31.76477 | -77.88434 | 35169 ft | 437 kts | 6° |
| 2026-04-28 18:53 | 31.82484 | -77.87467 | 35171 ft | 436 kts | 5° |
| 2026-04-28 18:53 | 31.88503 | -77.86498 | 35168 ft | 436 kts | 5° |
| 2026-04-28 18:54 | 31.94540 | -77.85523 | 35171 ft | 436 kts | 6° |
| 2026-04-28 18:54 | 32.00547 | -77.84551 | 35167 ft | 436 kts | 5° |
| 2026-04-28 18:55 | 32.05534 | -77.83743 | 35163 ft | 435 kts | 5° |
| 2026-04-28 18:55 | 32.12547 | -77.82607 | 35157 ft | 435 kts | 5° |
| 2026-04-28 18:56 | 32.18552 | -77.81632 | 35153 ft | 436 kts | 5° |
| 2026-04-28 18:56 | 32.24594 | -77.80652 | 35154 ft | 435 kts | 5° |
| 2026-04-28 18:57 | 32.30637 | -77.79669 | 35157 ft | 437 kts | 5° |
| 2026-04-28 18:57 | 32.36662 | -77.78687 | 35155 ft | 436 kts | 5° |
| 2026-04-28 18:58 | 32.42696 | -77.77704 | 35159 ft | 436 kts | 5° |
| 2026-04-28 18:58 | 32.48769 | -77.76713 | 35159 ft | 437 kts | 5° |
| 2026-04-28 18:59 | 32.54819 | -77.75723 | 35163 ft | 437 kts | 5° |
| 2026-04-28 18:59 | 32.60827 | -77.74740 | 35160 ft | 437 kts | 5° |
| 2026-04-28 19:00 | 32.66894 | -77.73746 | 35164 ft | 437 kts | 5° |
| 2026-04-28 19:00 | 32.72931 | -77.72755 | 35166 ft | 438 kts | 5° |
| 2026-04-28 19:01 | 32.79004 | -77.71757 | 35166 ft | 438 kts | 5° |
| 2026-04-28 19:01 | 32.85059 | -77.70759 | 35170 ft | 438 kts | 5° |
| 2026-04-28 19:02 | 32.91129 | -77.69759 | 35168 ft | 439 kts | 5° |
| 2026-04-28 19:02 | 32.97189 | -77.68758 | 35169 ft | 438 kts | 5° |
| 2026-04-28 19:03 | 33.03227 | -77.67761 | 35169 ft | 439 kts | 4° |
| 2026-04-28 19:03 | 33.09295 | -77.66756 | 35165 ft | 439 kts | 5° |
| 2026-04-28 19:04 | 33.15363 | -77.65750 | 35165 ft | 440 kts | 4° |
| 2026-04-28 19:04 | 33.21437 | -77.64742 | 35164 ft | 440 kts | 4° |
| 2026-04-28 19:05 | 33.27518 | -77.63732 | 35161 ft | 441 kts | 4° |
| 2026-04-28 19:05 | 33.33584 | -77.62724 | 35157 ft | 442 kts | 4° |
| 2026-04-28 19:06 | 33.38659 | -77.61877 | 35152 ft | 442 kts | 4° |
| 2026-04-28 19:06 | 33.45792 | -77.60688 | 35153 ft | 442 kts | 4° |
| 2026-04-28 19:07 | 33.51896 | -77.59669 | 35149 ft | 443 kts | 4° |
| 2026-04-28 19:07 | 33.57987 | -77.58752 | 35148 ft | 441 kts | 1° |
| 2026-04-28 19:08 | 33.64108 | -77.58421 | 35144 ft | 441 kts | 357° |
| 2026-04-28 19:08 | 33.70274 | -77.58231 | 35137 ft | 441 kts | 357° |
| 2026-04-28 19:09 | 33.76407 | -77.58044 | 35136 ft | 441 kts | 357° |
| 2026-04-28 19:09 | 33.82555 | -77.57852 | 35135 ft | 443 kts | 357° |
| 2026-04-28 19:10 | 33.88719 | -77.57660 | 35131 ft | 443 kts | 357° |
| 2026-04-28 19:10 | 33.94867 | -77.57464 | 35130 ft | 443 kts | 357° |
| 2026-04-28 19:11 | 34.01044 | -77.57269 | 35125 ft | 443 kts | 357° |
| 2026-04-28 19:11 | 34.07211 | -77.57072 | 35122 ft | 444 kts | 357° |
| 2026-04-28 19:12 | 34.13372 | -77.56876 | 35125 ft | 445 kts | 357° |
| 2026-04-28 19:12 | 34.19559 | -77.56679 | 35125 ft | 445 kts | 357° |
| 2026-04-28 19:13 | 34.25745 | -77.56481 | 35126 ft | 445 kts | 357° |
| 2026-04-28 19:13 | 34.31993 | -77.56280 | 35126 ft | 446 kts | 356° |
| 2026-04-28 19:14 | 34.38182 | -77.56083 | 35124 ft | 446 kts | 356° |
| 2026-04-28 19:14 | 34.44381 | -77.55885 | 35125 ft | 445 kts | 356° |
| 2026-04-28 19:15 | 34.50574 | -77.55686 | 35124 ft | 445 kts | 356° |
| 2026-04-28 19:15 | 34.55753 | -77.55520 | 35126 ft | 446 kts | 356° |
| 2026-04-28 19:16 | 34.63018 | -77.55289 | 35128 ft | 447 kts | 356° |
| 2026-04-28 19:16 | 34.69205 | -77.55087 | 35128 ft | 447 kts | 356° |
| 2026-04-28 19:17 | 34.75456 | -77.54885 | 35127 ft | 447 kts | 356° |
| 2026-04-28 19:17 | 34.81664 | -77.54685 | 35124 ft | 447 kts | 356° |
| 2026-04-28 19:18 | 34.87913 | -77.54485 | 35125 ft | 448 kts | 356° |
| 2026-04-28 19:18 | 34.94208 | -77.54278 | 35122 ft | 448 kts | 356° |
| 2026-04-28 19:19 | 35.00485 | -77.54075 | 35124 ft | 449 kts | 355° |
| 2026-04-28 19:19 | 35.06761 | -77.53869 | 35125 ft | 448 kts | 355° |
| 2026-04-28 19:20 | 35.13036 | -77.53666 | 35125 ft | 450 kts | 355° |
| 2026-04-28 19:20 | 35.19310 | -77.53461 | 35129 ft | 449 kts | 355° |
| 2026-04-28 19:21 | 35.25576 | -77.53255 | 35129 ft | 449 kts | 355° |
| 2026-04-28 19:21 | 35.31852 | -77.53052 | 35128 ft | 449 kts | 355° |
| 2026-04-28 19:22 | 35.36048 | -77.52914 | 35129 ft | 449 kts | 355° |
| 2026-04-28 19:22 | 35.44418 | -77.52638 | 35127 ft | 449 kts | 355° |
| 2026-04-28 19:23 | 35.50662 | -77.52434 | 35125 ft | 449 kts | 355° |
| 2026-04-28 19:23 | 35.56961 | -77.52226 | 35126 ft | 449 kts | 354° |
| 2026-04-28 19:24 | 35.63220 | -77.52020 | 35121 ft | 451 kts | 355° |
| 2026-04-28 19:24 | 35.69498 | -77.51814 | 35119 ft | 451 kts | 354° |
| 2026-04-28 19:25 | 35.75758 | -77.51606 | 35121 ft | 451 kts | 354° |
| 2026-04-28 19:25 | 35.82060 | -77.51396 | 35124 ft | 451 kts | 354° |
| 2026-04-28 19:26 | 35.88330 | -77.51190 | 35124 ft | 452 kts | 354° |
| 2026-04-28 19:26 | 35.94622 | -77.50978 | 35126 ft | 451 kts | 354° |
| 2026-04-28 19:27 | 36.00902 | -77.50771 | 35126 ft | 451 kts | 354° |
| 2026-04-28 19:27 | 36.07168 | -77.50562 | 35122 ft | 451 kts | 354° |
| 2026-04-28 19:28 | 36.13447 | -77.50352 | 35115 ft | 451 kts | 354° |
| 2026-04-28 19:28 | 36.19698 | -77.50146 | 35113 ft | 452 kts | 354° |
| 2026-04-28 19:29 | 36.24909 | -77.49972 | 35116 ft | 452 kts | 354° |
| 2026-04-28 19:29 | 36.32223 | -77.49726 | 35120 ft | 451 kts | 354° |
| 2026-04-28 19:30 | 36.38524 | -77.49515 | 35120 ft | 452 kts | 354° |
| 2026-04-28 19:30 | 36.44806 | -77.49306 | 35118 ft | 452 kts | 353° |
| 2026-04-28 19:31 | 36.51084 | -77.49094 | 35118 ft | 451 kts | 353° |
| 2026-04-28 19:31 | 36.57370 | -77.48538 | 35120 ft | 459 kts | 359° |
| 2026-04-28 19:32 | 36.63717 | -77.47431 | 35124 ft | 460 kts | 0° |
| 2026-04-28 19:32 | 36.70031 | -77.46281 | 35124 ft | 459 kts | 0° |
| 2026-04-28 19:33 | 36.76369 | -77.45132 | 35128 ft | 459 kts | 0° |
| 2026-04-28 19:33 | 36.82642 | -77.44003 | 35120 ft | 459 kts | 0° |
| 2026-04-28 19:34 | 36.88963 | -77.42860 | 35118 ft | 459 kts | 0° |
| 2026-04-28 19:34 | 36.95297 | -77.41719 | 35113 ft | 460 kts | 0° |
| 2026-04-28 19:35 | 37.01608 | -77.40576 | 35105 ft | 460 kts | 360° |
| 2026-04-28 19:35 | 37.07961 | -77.39426 | 35109 ft | 459 kts | 360° |
| 2026-04-28 19:36 | 37.14284 | -77.38277 | 35093 ft | 459 kts | 360° |
| 2026-04-28 19:36 | 37.17420 | -77.37707 | 34649 ft | 458 kts | 360° |
| 2026-04-28 19:36 | 37.20564 | -77.37140 | 33660 ft | 464 kts | 0° |
| 2026-04-28 19:37 | 37.23805 | -77.36559 | 32538 ft | 472 kts | 0° |
| 2026-04-28 19:37 | 37.25964 | -77.36169 | 31839 ft | 476 kts | 1° |
| 2026-04-28 19:37 | 37.30364 | -77.35369 | 30562 ft | 480 kts | 1° |
| 2026-04-28 19:37 | 37.33631 | -77.34768 | 29684 ft | 481 kts | 2° |
| 2026-04-28 19:38 | 37.36951 | -77.34161 | 28755 ft | 482 kts | 2° |
| 2026-04-28 19:38 | 37.40243 | -77.33559 | 27784 ft | 484 kts | 2° |
| 2026-04-28 19:38 | 37.43579 | -77.32948 | 27154 ft | 476 kts | 3° |
| 2026-04-28 19:38 | 37.46805 | -77.32346 | 26941 ft | 463 kts | 2° |
| 2026-04-28 19:39 | 37.49955 | -77.31722 | 26618 ft | 454 kts | 4° |
| 2026-04-28 19:39 | 37.53011 | -77.31016 | 26215 ft | 446 kts | 5° |
| 2026-04-28 19:39 | 37.56030 | -77.30286 | 25839 ft | 437 kts | 5° |
| 2026-04-28 19:39 | 37.58995 | -77.29567 | 25417 ft | 430 kts | 6° |
| 2026-04-28 19:40 | 37.61890 | -77.28872 | 24970 ft | 423 kts | 6° |
| 2026-04-28 19:40 | 37.64761 | -77.28181 | 24533 ft | 417 kts | 6° |
| 2026-04-28 19:40 | 37.67593 | -77.27502 | 24109 ft | 411 kts | 6° |
| 2026-04-28 19:40 | 37.70348 | -77.26840 | 23690 ft | 405 kts | 6° |
| 2026-04-28 19:41 | 37.73119 | -77.26150 | 23358 ft | 397 kts | 7° |
| 2026-04-28 19:41 | 37.75754 | -77.25465 | 23220 ft | 385 kts | 7° |
| 2026-04-28 19:41 | 37.78351 | -77.24786 | 23162 ft | 377 kts | 7° |
| 2026-04-28 19:41 | 37.80893 | -77.24122 | 23146 ft | 373 kts | 7° |
| 2026-04-28 19:42 | 37.83431 | -77.23465 | 23132 ft | 371 kts | 7° |
| 2026-04-28 19:42 | 37.85945 | -77.22813 | 23106 ft | 369 kts | 7° |
| 2026-04-28 19:42 | 37.88467 | -77.22160 | 23105 ft | 368 kts | 7° |
| 2026-04-28 19:42 | 37.90150 | -77.21723 | 23107 ft | 368 kts | 7° |
| 2026-04-28 19:43 | 37.93585 | -77.20837 | 23096 ft | 386 kts | 7° |
| 2026-04-28 19:43 | 37.96210 | -77.20155 | 23073 ft | 387 kts | 7° |
| 2026-04-28 19:43 | 37.98880 | -77.19456 | 22842 ft | 389 kts | 7° |
| 2026-04-28 19:43 | 38.01522 | -77.18765 | 22305 ft | 388 kts | 7° |
| 2026-04-28 19:44 | 38.04165 | -77.18074 | 21810 ft | 386 kts | 7° |
| 2026-04-28 19:44 | 38.06763 | -77.17396 | 21345 ft | 383 kts | 7° |
| 2026-04-28 19:44 | 38.09345 | -77.16722 | 20893 ft | 379 kts | 7° |
| 2026-04-28 19:44 | 38.11928 | -77.16045 | 20454 ft | 376 kts | 7° |
| 2026-04-28 19:45 | 38.14460 | -77.15384 | 20020 ft | 373 kts | 7° |
| 2026-04-28 19:45 | 38.17002 | -77.14718 | 19574 ft | 371 kts | 7° |
| 2026-04-28 19:45 | 38.19531 | -77.14056 | 19119 ft | 368 kts | 7° |
| 2026-04-28 19:45 | 38.22028 | -77.13401 | 18680 ft | 366 kts | 7° |
| 2026-04-28 19:46 | 38.24523 | -77.12746 | 18233 ft | 364 kts | 7° |
| 2026-04-28 19:46 | 38.26988 | -77.12099 | 17766 ft | 362 kts | 7° |
| 2026-04-28 19:46 | 38.29438 | -77.11457 | 17317 ft | 360 kts | 7° |
| 2026-04-28 19:46 | 38.31879 | -77.10818 | 16871 ft | 358 kts | 7° |
| 2026-04-28 19:47 | 38.34319 | -77.10160 | 16420 ft | 358 kts | 9° |
| 2026-04-28 19:47 | 38.36676 | -77.09139 | 15944 ft | 362 kts | 19° |
| 2026-04-28 19:47 | 38.38887 | -77.07590 | 15463 ft | 365 kts | 28° |
| 2026-04-28 19:47 | 38.40988 | -77.05756 | 15020 ft | 364 kts | 31° |
| 2026-04-28 19:48 | 38.43041 | -77.03900 | 14560 ft | 363 kts | 31° |
| 2026-04-28 19:48 | 38.45105 | -77.02033 | 14107 ft | 362 kts | 31° |
| 2026-04-28 19:48 | 38.47157 | -77.00188 | 13644 ft | 360 kts | 30° |
| 2026-04-28 19:48 | 38.49202 | -76.98357 | 13188 ft | 359 kts | 30° |
| 2026-04-28 19:49 | 38.51228 | -76.96550 | 12835 ft | 354 kts | 30° |
| 2026-04-28 19:49 | 38.53226 | -76.94765 | 12418 ft | 353 kts | 31° |
| 2026-04-28 19:49 | 38.55200 | -76.92854 | 11939 ft | 354 kts | 35° |
| 2026-04-28 19:49 | 38.57025 | -76.90795 | 11527 ft | 354 kts | 38° |
| 2026-04-28 19:50 | 38.60585 | -76.86530 | 10720 ft | 348 kts | 39° |
| 2026-04-28 19:50 | 38.62338 | -76.84418 | 10369 ft | 344 kts | 39° |
| 2026-04-28 19:50 | 38.64070 | -76.82329 | 10110 ft | 337 kts | 39° |
| 2026-04-28 19:51 | 38.65749 | -76.80308 | 9968 ft | 325 kts | 38° |
| 2026-04-28 19:51 | 38.67377 | -76.78350 | 9728 ft | 320 kts | 38° |
| 2026-04-28 19:51 | 38.68969 | -76.76440 | 9460 ft | 315 kts | 38° |
| 2026-04-28 19:51 | 38.70476 | -76.74393 | 9183 ft | 314 kts | 47° |
| 2026-04-28 19:52 | 38.71682 | -76.72074 | 9017 ft | 310 kts | 55° |
| 2026-04-28 19:52 | 38.72722 | -76.69704 | 8779 ft | 306 kts | 57° |
| 2026-04-28 19:52 | 38.73741 | -76.67312 | 8401 ft | 307 kts | 57° |
| 2026-04-28 19:52 | 38.74764 | -76.64922 | 8031 ft | 307 kts | 57° |
| 2026-04-28 19:53 | 38.75787 | -76.62550 | 7745 ft | 305 kts | 57° |
| 2026-04-28 19:53 | 38.76812 | -76.60181 | 7482 ft | 302 kts | 56° |
| 2026-04-28 19:53 | 38.78058 | -76.58061 | 7111 ft | 293 kts | 33° |
| 2026-04-28 19:53 | 38.79838 | -76.57044 | 6962 ft | 273 kts | 7° |
| 2026-04-28 19:54 | 38.81730 | -76.56603 | 6569 ft | 275 kts | 5° |
| 2026-04-28 19:54 | 38.83606 | -76.56182 | 6191 ft | 275 kts | 2° |
| 2026-04-28 19:54 | 38.85508 | -76.56132 | 5876 ft | 268 kts | 350° |
| 2026-04-28 19:54 | 38.87323 | -76.56522 | 5884 ft | 262 kts | 344° |
| 2026-04-28 19:55 | 38.89130 | -76.57018 | 5905 ft | 262 kts | 343° |
| 2026-04-28 19:55 | 38.90908 | -76.57510 | 5708 ft | 264 kts | 343° |
| 2026-04-28 19:55 | 38.92732 | -76.58009 | 5335 ft | 266 kts | 344° |
| 2026-04-28 19:55 | 38.94536 | -76.58498 | 5035 ft | 265 kts | 344° |
| 2026-04-28 19:56 | 38.96274 | -76.59038 | 4960 ft | 251 kts | 333° |
| 2026-04-28 19:56 | 38.97590 | -76.60345 | 4955 ft | 234 kts | 302° |
| 2026-04-28 19:56 | 38.98401 | -76.62140 | 4975 ft | 234 kts | 296° |
| 2026-04-28 19:56 | 38.99177 | -76.63957 | 4973 ft | 233 kts | 296° |
| 2026-04-28 19:57 | 38.99977 | -76.65795 | 4787 ft | 236 kts | 296° |
| 2026-04-28 19:57 | 39.00792 | -76.67638 | 4461 ft | 238 kts | 296° |
| 2026-04-28 19:57 | 39.01601 | -76.69454 | 4238 ft | 234 kts | 296° |
| 2026-04-28 19:57 | 39.02407 | -76.71259 | 4056 ft | 229 kts | 296° |
| 2026-04-28 19:58 | 39.03186 | -76.73006 | 3985 ft | 220 kts | 296° |
| 2026-04-28 19:58 | 39.03944 | -76.74693 | 3983 ft | 219 kts | 296° |
| 2026-04-28 19:58 | 39.04711 | -76.76394 | 3983 ft | 219 kts | 296° |
| 2026-04-28 19:58 | 39.05472 | -76.78078 | 3981 ft | 219 kts | 296° |
| 2026-04-28 19:59 | 39.06245 | -76.79792 | 3982 ft | 219 kts | 296° |
| 2026-04-28 19:59 | 39.07008 | -76.81492 | 3980 ft | 219 kts | 295° |
| 2026-04-28 19:59 | 39.07662 | -76.83261 | 3980 ft | 217 kts | 288° |
| 2026-04-28 19:59 | 39.08166 | -76.85062 | 3981 ft | 216 kts | 285° |
| 2026-04-28 20:00 | 39.08652 | -76.86893 | 3981 ft | 216 kts | 285° |
| 2026-04-28 20:00 | 39.09137 | -76.88730 | 3981 ft | 216 kts | 285° |
| 2026-04-28 20:00 | 39.09621 | -76.90553 | 3978 ft | 216 kts | 285° |
| 2026-04-28 20:00 | 39.10118 | -76.92394 | 3971 ft | 216 kts | 289° |
| 2026-04-28 20:01 | 39.11013 | -76.93932 | 3710 ft | 226 kts | 324° |
| 2026-04-28 20:01 | 39.12534 | -76.94506 | 3444 ft | 236 kts | 359° |
| 2026-04-28 20:01 | 39.14115 | -76.93919 | 3158 ft | 242 kts | 34° |
| 2026-04-28 20:01 | 39.15199 | -76.92299 | 2985 ft | 236 kts | 66° |
| 2026-04-28 20:02 | 39.15885 | -76.90404 | 2984 ft | 233 kts | 68° |
| 2026-04-28 20:02 | 39.16571 | -76.88508 | 2973 ft | 229 kts | 67° |
| 2026-04-28 20:02 | 39.17241 | -76.86730 | 2960 ft | 219 kts | 66° |
| 2026-04-28 20:02 | 39.17915 | -76.84978 | 2966 ft | 218 kts | 68° |
| 2026-04-28 20:03 | 39.18285 | -76.83119 | 2968 ft | 211 kts | 91° |
| 2026-04-28 20:03 | 39.18246 | -76.81240 | 2975 ft | 209 kts | 99° |
| 2026-04-28 20:03 | 39.18103 | -76.79372 | 2456 ft | 227 kts | 98° |
| 2026-04-28 20:03 | 39.17973 | -76.77274 | 1511 ft | 237 kts | 97° |
| 2026-04-28 20:04 | 39.17839 | -76.75201 | 846 ft | 234 kts | 97° |
| 2026-04-28 20:04 | 39.17719 | -76.73231 | 549 ft | 208 kts | 96° |
| 2026-04-28 20:04 | 39.17627 | -76.71493 | 406 ft | 181 kts | 96° |
| 2026-04-28 20:04 | 39.17536 | -76.69979 | 260 ft | 160 kts | 95° |
| 2026-04-28 20:05 | 39.17459 | -76.68631 | 147 ft | 141 kts | 96° |
| 2026-04-28 20:05 | 39.17392 | -76.67566 | 137 ft | 82 kts | 95° |
| 2026-04-28 20:05 | 39.17364 | -76.67044 | 144 ft | 46 kts | 95° |
| 2026-04-28 20:05 | 39.17345 | -76.66708 | 146 ft | 30 kts | 95° |
| 2026-04-28 20:06 | 39.17394 | -76.66592 | 146 ft | 8 kts | 1° |
| 2026-04-28 20:06 | 39.17444 | -76.66608 | 146 ft | 8 kts | 286° |
| 2026-04-28 20:06 | 39.17457 | -76.66689 | 146 ft | 9 kts | 279° |
| 2026-04-28 20:06 | 39.17470 | -76.66783 | 146 ft | 11 kts | 279° |
| 2026-04-28 20:07 | 39.17521 | -76.66805 | 146 ft | 11 kts | 61° |
| 2026-04-28 20:07 | 39.17524 | -76.66737 | 146 ft | 12 kts | 90° |
| 2026-04-28 20:07 | 39.17569 | -76.66621 | 147 ft | 11 kts | 33° |
| 2026-04-28 20:07 | 39.17643 | -76.66561 | 147 ft | 13 kts | 32° |
| 2026-04-28 20:08 | 39.17725 | -76.66499 | 147 ft | 13 kts | 9° |
| 2026-04-28 20:08 | 39.17806 | -76.66537 | 149 ft | 12 kts | 30° |
| 2026-04-28 20:08 | 39.17848 | -76.66493 | 149 ft | 3 kts | 39° |
| 2026-04-28 20:08 | 39.17853 | -76.66488 | 149 ft | 0 kts | 39° |